Time;durP1;ratioP1;P1;durP2;ratioP2;P2;SDS_P1;SDS_P2;PMS_P1;PMS_P2;Temp;Humidity;BMP_temperature;BMP_pressure;BME280_temperature;BME280_humidity;BME280_pressure;Samples;Min_cycle;Max_cycle;Signal;HPM_P1;HPM_P2
2023/10/21 00:01:05;;;;;;;9.27;4.63;;;;;;;10.50;100.00;98248.94;5028407;28;20477;-68
2023/10/21 00:03:30;;;;;;;9.52;4.30;;;;;;;10.47;100.00;98249.28;5028347;28;20047;-69
2023/10/21 00:05:56;;;;;;;8.90;4.43;;;;;;;10.48;100.00;98254.53;5027165;28;20537;-69
2023/10/21 00:08:21;;;;;;;8.30;4.50;;;;;;;10.48;100.00;98259.13;5011417;28;20037;-68
2023/10/21 00:10:47;;;;;;;7.38;4.18;;;;;;;10.47;100.00;98258.28;5028373;28;20041;-68
2023/10/21 00:13:12;;;;;;;7.50;4.35;;;;;;;10.47;100.00;98254.72;5028140;28;20465;-69
2023/10/21 00:15:40;;;;;;;7.13;3.85;;;;;;;10.49;100.00;98258.09;5027559;28;20116;-69
2023/10/21 00:18:05;;;;;;;9.10;4.88;;;;;;;10.48;100.00;98264.56;5026914;28;20540;-69
2023/10/21 00:20:30;;;;;;;7.22;3.97;;;;;;;10.49;100.00;98274.41;5030632;28;20064;-69
2023/10/21 00:22:56;;;;;;;7.60;4.13;;;;;;;10.50;100.00;98272.56;5044735;28;20041;-69
2023/10/21 00:25:21;;;;;;;8.18;4.75;;;;;;;10.48;100.00;98278.16;5035526;28;20033;-71
2023/10/21 00:27:48;;;;;;;7.10;4.00;;;;;;;10.47;100.00;98280.03;5027305;28;20562;-69
2023/10/21 00:30:13;;;;;;;8.35;4.20;;;;;;;10.51;100.00;98283.25;5027672;28;20045;-68
2023/10/21 00:32:38;;;;;;;6.97;4.22;;;;;;;10.53;100.00;98286.63;5026747;28;20041;-69
2023/10/21 00:35:04;;;;;;;10.23;4.57;;;;;;;10.54;100.00;98292.91;5037864;28;20065;-69
2023/10/21 00:37:30;;;;;;;6.80;4.15;;;;;;;10.51;100.00;98294.13;5037246;28;20029;-69
2023/10/21 00:39:55;;;;;;;13.82;5.10;;;;;;;10.54;100.00;98296.53;5042515;28;20040;-69
2023/10/21 00:42:20;;;;;;;6.07;3.85;;;;;;;10.58;100.00;98300.56;5039986;28;20041;-69
2023/10/21 00:44:46;;;;;;;11.18;4.55;;;;;;;10.60;100.00;98303.97;5026614;28;20041;-70
2023/10/21 00:47:11;;;;;;;7.43;4.97;;;;;;;10.61;100.00;98305.66;5026478;28;20064;-69
2023/10/21 00:49:37;;;;;;;7.63;4.88;;;;;;;10.66;100.00;98313.28;5027600;28;20051;-70
2023/10/21 00:52:04;;;;;;;7.07;4.43;;;;;;;10.63;100.00;98319.06;5027775;28;20033;-73
2023/10/21 00:54:29;;;;;;;9.57;4.40;;;;;;;10.62;100.00;98323.66;5045459;28;20439;-68
2023/10/21 00:56:55;;;;;;;8.68;4.95;;;;;;;10.62;100.00;98329.09;5037383;28;20112;-69
2023/10/21 00:59:22;;;;;;;7.90;4.88;;;;;;;10.62;100.00;98330.97;5031772;28;20179;-68
2023/10/21 01:01:48;;;;;;;11.50;5.05;;;;;;;10.60;100.00;98330.31;5031636;28;20345;-68
2023/10/21 01:04:14;;;;;;;15.23;6.15;;;;;;;10.58;100.00;98330.47;5042293;28;20047;-69
2023/10/21 01:06:40;;;;;;;12.68;6.82;;;;;;;10.55;100.00;98340.84;5050000;28;20044;-69
2023/10/21 01:09:06;;;;;;;14.90;6.93;;;;;;;10.56;100.00;98334.41;5037162;28;20393;-70
2023/10/21 01:11:31;;;;;;;15.23;7.85;;;;;;;10.55;100.00;98338.97;5031050;28;20037;-69
2023/10/21 01:13:57;;;;;;;12.07;7.60;;;;;;;10.55;100.00;98349.00;5029705;28;20430;-72
2023/10/21 01:16:23;;;;;;;13.23;7.60;;;;;;;10.56;100.00;98348.84;5039890;28;20045;-71
2023/10/21 01:18:48;;;;;;;21.15;7.18;;;;;;;10.58;100.00;98345.94;5048854;28;20044;-69
2023/10/21 01:21:14;;;;;;;14.30;7.18;;;;;;;10.57;100.00;98355.97;5049404;28;20111;-69
2023/10/21 01:23:40;;;;;;;19.38;8.20;;;;;;;10.57;100.00;98349.69;5041107;28;20127;-69
2023/10/21 01:26:06;;;;;;;16.45;6.47;;;;;;;10.60;100.00;98344.75;5032296;28;20384;-71
2023/10/21 01:28:35;;;;;;;13.85;5.90;;;;;;;10.62;100.00;98358.16;5030860;28;20044;-70
2023/10/21 01:31:02;;;;;;;12.63;6.88;;;;;;;10.66;100.00;98365.81;5029203;28;20041;-68
2023/10/21 01:33:27;;;;;;;13.43;6.53;;;;;;;10.69;100.00;98359.19;5028924;28;20425;-69
2023/10/21 01:35:53;;;;;;;13.02;6.38;;;;;;;10.72;100.00;98377.84;5030605;28;20037;-69
2023/10/21 01:38:19;;;;;;;16.52;6.78;;;;;;;10.71;100.00;98374.28;5029590;28;20493;-69
2023/10/21 01:40:45;;;;;;;15.52;6.47;;;;;;;10.77;100.00;98378.22;5029063;28;20029;-69
2023/10/21 01:43:10;;;;;;;14.00;6.95;;;;;;;10.80;100.00;98371.56;5030307;28;20037;-71
2023/10/21 01:45:36;;;;;;;15.77;6.35;;;;;;;10.82;100.00;98375.81;5036607;28;20056;-70
2023/10/21 01:48:03;;;;;;;14.68;7.03;;;;;;;10.86;100.00;98379.00;5028553;28;20124;-70
2023/10/21 01:50:28;;;;;;;10.10;6.30;;;;;;;10.89;100.00;98373.25;5030136;28;20053;-70
2023/10/21 01:52:55;;;;;;;14.52;6.13;;;;;;;10.92;100.00;98381.91;5028684;28;20087;-69
2023/10/21 01:55:20;;;;;;;11.82;6.18;;;;;;;10.95;100.00;98375.25;5030531;28;20041;-72
2023/10/21 01:57:46;;;;;;;11.82;5.22;;;;;;;10.99;100.00;98376.59;5030325;28;20034;-69
2023/10/21 02:00:11;;;;;;;10.45;5.32;;;;;;;11.02;100.00;98386.31;5028773;28;20133;-70
2023/10/21 02:02:40;;;;;;;10.52;5.03;;;;;;;11.01;100.00;98387.34;5030365;28;20094;-70
2023/10/21 02:05:06;;;;;;;9.70;4.57;;;;;;;11.06;100.00;98382.22;5040470;28;20115;-70
2023/10/21 02:07:37;;;;;;;8.63;4.93;;;;;;;11.06;100.00;98387.66;5047512;28;20045;-71
2023/10/21 02:10:04;;;;;;;8.50;4.95;;;;;;;11.06;100.00;98395.81;5048007;28;20029;-72
2023/10/21 02:12:31;;;;;;;12.45;4.63;;;;;;;11.09;100.00;98398.16;5031735;28;20094;-70
2023/10/21 02:14:56;;;;;;;15.30;5.05;;;;;;;11.08;100.00;98405.47;5045410;28;20044;-70
2023/10/21 02:17:22;;;;;;;11.23;5.60;;;;;;;11.09;100.00;98401.72;5044649;28;20037;-74
2023/10/21 02:19:51;;;;;;;11.38;5.03;;;;;;;11.09;100.00;98407.19;5028827;28;20702;-69
2023/10/21 02:22:17;;;;;;;10.18;5.32;;;;;;;11.10;100.00;98417.06;5030264;28;20159;-69
2023/10/21 02:24:42;;;;;;;12.65;4.97;;;;;;;11.07;100.00;98411.97;5045940;28;20112;-69
2023/10/21 02:27:09;;;;;;;5.35;4.45;;;;;;;11.09;100.00;98417.22;5031432;28;20052;-69
2023/10/21 02:29:35;;;;;;;7.45;4.43;;;;;;;11.09;100.00;98426.22;5048608;28;20548;-69
2023/10/21 02:32:00;;;;;;;10.18;5.35;;;;;;;11.09;100.00;98426.22;5027807;28;20137;-69
2023/10/21 02:34:25;;;;;;;12.10;4.63;;;;;;;11.10;100.00;98438.84;5028134;28;20044;-68
2023/10/21 02:36:51;;;;;;;12.07;5.10;;;;;;;11.09;100.00;98428.94;5028186;28;20026;-69
2023/10/21 02:39:17;;;;;;;9.43;4.55;;;;;;;11.08;100.00;98429.97;5028266;28;20778;-69
2023/10/21 02:41:43;;;;;;;15.68;4.68;;;;;;;11.09;100.00;98436.25;5029440;28;20456;-68
2023/10/21 02:44:08;;;;;;;10.70;4.75;;;;;;;11.07;100.00;98436.44;5027961;28;20148;-68
2023/10/21 02:46:33;;;;;;;13.20;5.60;;;;;;;11.08;100.00;98438.13;5029353;28;20041;-69
2023/10/21 02:48:59;;;;;;;12.35;5.13;;;;;;;11.06;100.00;98436.63;5031333;28;20120;-69
2023/10/21 02:51:24;;;;;;;8.50;4.85;;;;;;;11.05;100.00;98432.19;5028830;28;20025;-69
2023/10/21 02:53:49;;;;;;;8.07;4.57;;;;;;;11.03;100.00;98440.53;5034082;28;20041;-69
2023/10/21 02:56:15;;;;;;;13.23;4.85;;;;;;;11.03;100.00;98453.28;5028182;28;20483;-70
2023/10/21 02:58:40;;;;;;;9.23;4.53;;;;;;;11.00;100.00;98449.03;5029077;28;20036;-68
2023/10/21 03:01:18;;;;;;;9.75;4.43;;;;;;;10.99;100.00;98450.06;5028958;28;20440;-70
2023/10/21 03:03:45;;;;;;;6.53;4.30;;;;;;;10.99;100.00;98458.22;5027599;28;20507;-70
2023/10/21 03:06:12;;;;;;;10.98;4.80;;;;;;;10.99;100.00;98463.66;5028889;28;20075;-69
2023/10/21 03:08:38;;;;;;;10.18;5.38;;;;;;;10.96;100.00;98472.19;5028912;28;20041;-70
2023/10/21 03:11:05;;;;;;;9.32;4.50;;;;;;;10.95;100.00;98467.75;5034917;28;20037;-70
2023/10/21 03:13:31;;;;;;;10.80;5.00;;;;;;;10.92;100.00;98471.66;5048644;28;20041;-69
2023/10/21 03:15:57;;;;;;;13.23;6.63;;;;;;;10.90;100.00;98481.84;5041861;28;20021;-72
2023/10/21 03:18:23;;;;;;;6.63;4.20;;;;;;;10.89;100.00;98474.72;5027256;28;20046;-70
2023/10/21 03:20:54;;;;;;;8.32;4.85;;;;;;;10.89;100.00;98482.03;5028977;28;20029;-69
2023/10/21 03:23:20;;;;;;;10.95;4.35;;;;;;;10.86;100.00;98477.78;5029109;28;20111;-69
2023/10/21 03:25:55;;;;;;;8.10;4.22;;;;;;;10.87;100.00;98476.78;5029123;28;20112;-69
2023/10/21 03:28:22;;;;;;;13.27;4.78;;;;;;;10.84;100.00;98488.00;5047658;28;20439;-69
2023/10/21 03:30:48;;;;;;;10.38;4.65;;;;;;;10.85;100.00;98491.56;5047613;28;20103;-73
2023/10/21 03:33:13;;;;;;;7.57;4.35;;;;;;;10.83;100.00;98491.75;5028710;28;20037;-70
2023/10/21 03:35:38;;;;;;;6.00;4.28;;;;;;;10.82;100.00;98497.31;5028665;28;20382;-70
2023/10/21 03:38:04;;;;;;;8.75;4.22;;;;;;;10.82;100.00;98494.59;5028709;28;20452;-70
2023/10/21 03:40:29;;;;;;;10.68;4.78;;;;;;;10.81;100.00;98503.78;5027086;28;20023;-70
2023/10/21 03:42:54;;;;;;;11.00;4.43;;;;;;;10.83;100.00;98512.66;5044041;28;20396;-69
2023/10/21 03:45:20;;;;;;;7.43;4.07;;;;;;;10.76;100.00;98509.75;5048606;28;20028;-72
2023/10/21 03:47:45;;;;;;;9.35;4.78;;;;;;;10.80;100.00;98512.97;5029147;28;20052;-70
2023/10/21 03:50:11;;;;;;;7.15;4.00;;;;;;;10.82;100.00;98516.38;5028174;28;20541;-69
2023/10/21 03:52:38;;;;;;;13.57;4.43;;;;;;;10.83;100.00;98526.25;5028844;28;20215;-69
2023/10/21 03:55:04;;;;;;;9.68;4.63;;;;;;;10.82;100.00;98530.84;5028336;28;20036;-70
2023/10/21 03:57:29;;;;;;;10.70;4.43;;;;;;;10.82;100.00;98524.53;5040328;28;20172;-69
2023/10/21 03:59:55;;;;;;;7.45;4.10;;;;;;;10.78;100.00;98525.91;5027142;28;20100;-69
2023/10/21 04:02:20;;;;;;;13.02;5.57;;;;;;;10.82;100.00;98539.00;5028647;28;20408;-69
2023/10/21 04:04:46;;;;;;;6.75;3.80;;;;;;;10.85;100.00;98537.81;5027471;28;20069;-69
2023/10/21 04:07:11;;;;;;;7.28;4.40;;;;;;;10.83;100.00;98531.69;5028250;28;20107;-70
2023/10/21 04:09:36;;;;;;;9.05;4.20;;;;;;;10.82;100.00;98541.72;5026744;28;20033;-69
2023/10/21 04:12:02;;;;;;;8.30;4.53;;;;;;;10.86;100.00;98545.78;5028531;28;20064;-69
2023/10/21 04:14:27;;;;;;;8.10;4.57;;;;;;;10.87;100.00;98554.81;5028028;28;20095;-70
2023/10/21 04:16:52;;;;;;;9.35;5.13;;;;;;;10.89;100.00;98558.22;5010009;28;20124;-71
2023/10/21 04:19:19;;;;;;;6.40;4.00;;;;;;;10.95;100.00;98557.53;5028394;28;20067;-73
2023/10/21 04:21:44;;;;;;;6.57;4.07;;;;;;;10.98;100.00;98570.78;5027797;28;20456;-70
2023/10/21 04:24:09;;;;;;;10.68;4.18;;;;;;;10.99;100.00;98565.16;5026583;28;20128;-70
2023/10/21 04:26:35;;;;;;;9.52;4.60;;;;;;;10.99;100.00;98570.63;5026748;28;20104;-69
2023/10/21 04:29:00;;;;;;;6.82;4.60;;;;;;;10.97;100.00;98575.38;5026740;28;20049;-70
2023/10/21 04:31:26;;;;;;;7.85;4.25;;;;;;;11.00;100.00;98576.91;5030030;28;20393;-69
2023/10/21 04:33:51;;;;;;;10.55;4.28;;;;;;;11.02;100.00;98579.47;5032100;28;20444;-70
2023/10/21 04:36:19;;;;;;;5.72;4.07;;;;;;;11.02;100.00;98580.31;5032103;28;20473;-69
2023/10/21 04:38:45;;;;;;;12.48;4.40;;;;;;;11.09;100.00;98586.75;5031142;28;20021;-70
2023/10/21 04:41:10;;;;;;;13.50;4.68;;;;;;;11.07;100.00;98598.84;5034136;28;20540;-69
2023/10/21 04:43:36;;;;;;;9.00;4.93;;;;;;;11.05;100.00;98600.88;5031466;28;20021;-68
2023/10/21 04:46:01;;;;;;;10.07;4.00;;;;;;;11.04;100.00;98594.59;5031533;28;20084;-69
2023/10/21 04:48:26;;;;;;;11.57;4.53;;;;;;;11.05;100.00;98604.47;5031646;28;20041;-69
2023/10/21 04:50:52;;;;;;;9.25;4.28;;;;;;;11.06;100.00;98611.63;5040771;28;20044;-71
2023/10/21 04:53:17;;;;;;;7.85;4.30;;;;;;;11.04;100.00;98615.50;5030770;28;20112;-69
2023/10/21 04:55:43;;;;;;;13.35;4.75;;;;;;;11.02;100.00;98614.84;5040797;28;20032;-70
2023/10/21 04:58:08;;;;;;;6.70;4.22;;;;;;;11.00;100.00;98623.16;5030970;28;20099;-69
2023/10/21 05:00:34;;;;;;;8.07;4.47;;;;;;;10.97;100.00;98624.34;5031086;28;20044;-73
2023/10/21 05:02:59;;;;;;;8.13;4.50;;;;;;;10.94;100.00;98634.72;5031218;28;20130;-71
2023/10/21 05:05:25;;;;;;;10.15;4.38;;;;;;;10.95;100.00;98628.25;5029623;28;20021;-71
2023/10/21 05:07:50;;;;;;;20.50;4.75;;;;;;;10.93;100.00;98628.44;5030221;28;20041;-71
2023/10/21 05:10:18;;;;;;;10.77;5.10;;;;;;;10.89;100.00;98637.09;5029604;28;20033;-70
2023/10/21 05:12:43;;;;;;;17.02;4.80;;;;;;;10.85;100.00;98638.44;5043825;28;20481;-70
2023/10/21 05:15:09;;;;;;;12.23;4.45;;;;;;;10.82;100.00;98646.94;5029383;28;20037;-70
2023/10/21 05:17:35;;;;;;;10.15;4.68;;;;;;;10.80;100.00;98644.38;5034831;28;20052;-69
2023/10/21 05:20:00;;;;;;;9.48;3.80;;;;;;;10.73;100.00;98644.22;5049336;28;20126;-71
2023/10/21 05:22:25;;;;;;;9.85;4.55;;;;;;;10.71;100.00;98643.50;5017800;28;20041;-71
2023/10/21 05:24:51;;;;;;;14.23;4.57;;;;;;;10.76;100.00;98650.31;5031247;28;20049;-69
2023/10/21 05:27:16;;;;;;;10.45;4.68;;;;;;;10.77;100.00;98655.63;5034935;28;20034;-70
2023/10/21 05:29:41;;;;;;;11.25;5.03;;;;;;;10.78;100.00;98662.75;5029281;28;20045;-70
2023/10/21 05:32:07;;;;;;;13.48;4.93;;;;;;;10.81;100.00;98664.28;5030514;28;20054;-71
2023/10/21 05:34:32;;;;;;;12.80;4.63;;;;;;;10.81;100.00;98664.28;5032550;28;20091;-71
2023/10/21 05:36:58;;;;;;;18.42;5.10;;;;;;;10.84;100.00;98672.09;5030547;28;20041;-71
2023/10/21 05:39:23;;;;;;;9.65;5.07;;;;;;;10.84;100.00;98672.97;5030697;28;20103;-70
2023/10/21 05:41:48;;;;;;;8.63;4.90;;;;;;;10.90;100.00;98677.72;5030744;28;20029;-70
2023/10/21 05:44:14;;;;;;;10.50;4.97;;;;;;;10.93;100.00;98671.97;5029154;28;20140;-71
2023/10/21 05:46:39;;;;;;;16.38;5.05;;;;;;;10.93;100.00;98674.69;5030325;28;20025;-70
2023/10/21 05:49:04;;;;;;;9.07;4.28;;;;;;;10.94;100.00;98684.53;5030320;28;20121;-70
2023/10/21 05:51:30;;;;;;;8.43;4.43;;;;;;;10.97;100.00;98686.94;5030141;28;20080;-69
2023/10/21 05:53:57;;;;;;;11.73;4.78;;;;;;;11.02;100.00;98691.88;5029681;28;20064;-70
2023/10/21 05:56:22;;;;;;;13.40;5.72;;;;;;;11.06;100.00;98700.56;5035054;28;20052;-70
2023/10/21 05:58:48;;;;;;;11.65;5.30;;;;;;;11.13;100.00;98704.31;5030371;28;20477;-71
2023/10/21 06:01:15;;;;;;;14.80;4.85;;;;;;;11.18;100.00;98702.78;5031778;28;20033;-70
2023/10/21 06:03:40;;;;;;;10.10;4.68;;;;;;;11.25;100.00;98702.97;5043537;28;20028;-70
2023/10/21 06:06:06;;;;;;;14.38;5.50;;;;;;;11.30;100.00;98706.03;5048754;28;20059;-70
2023/10/21 06:08:31;;;;;;;12.35;5.25;;;;;;;11.34;100.00;98714.72;5039374;28;20025;-69
2023/10/21 06:10:57;;;;;;;13.18;5.07;;;;;;;11.39;100.00;98715.91;5038001;28;20041;-69
2023/10/21 06:13:24;;;;;;;9.43;4.75;;;;;;;11.42;100.00;98726.47;5028707;28;20059;-70
2023/10/21 06:15:50;;;;;;;13.73;4.95;;;;;;;11.45;100.00;98730.72;5028598;28;20057;-69
2023/10/21 06:18:16;;;;;;;16.58;4.18;;;;;;;11.49;100.00;98734.81;5034234;28;20060;-70
2023/10/21 06:20:45;;;;;;;10.52;4.32;;;;;;;11.54;100.00;98742.47;5048041;28;20836;-73
2023/10/21 06:23:11;;;;;;;6.53;4.05;;;;;;;11.57;100.00;98744.88;5046677;28;20068;-71
2023/10/21 06:25:36;;;;;;;10.02;4.68;;;;;;;11.62;100.00;98750.66;5029234;28;20069;-69
2023/10/21 06:28:01;;;;;;;11.70;4.70;;;;;;;11.65;100.00;98747.56;5036404;28;20038;-70
2023/10/21 06:30:27;;;;;;;11.25;4.68;;;;;;;11.70;100.00;98753.34;5031905;28;20074;-70
2023/10/21 06:32:52;;;;;;;13.88;4.60;;;;;;;11.71;100.00;98755.94;5044386;28;20035;-70
2023/10/21 06:35:18;;;;;;;11.00;4.75;;;;;;;11.77;100.00;98768.00;5032121;28;20040;-72
2023/10/21 06:37:43;;;;;;;10.65;4.65;;;;;;;11.81;100.00;98779.44;5027334;28;20492;-72
2023/10/21 06:40:09;;;;;;;8.65;4.07;;;;;;;11.84;100.00;98781.81;5037485;28;20476;-71
2023/10/21 06:42:34;;;;;;;8.48;4.35;;;;;;;11.89;100.00;98776.72;5033270;28;20036;-70
2023/10/21 06:45:00;;;;;;;9.80;4.03;;;;;;;11.95;100.00;98790.53;5044123;28;20039;-70
2023/10/21 06:47:25;;;;;;;5.63;3.80;;;;;;;11.99;100.00;98791.91;5032788;28;20044;-72
2023/10/21 06:49:50;;;;;;;11.68;3.70;;;;;;;12.02;100.00;98798.00;5029444;28;20034;-71
2023/10/21 06:52:17;;;;;;;8.55;3.78;;;;;;;12.07;100.00;98801.91;5010648;28;20089;-71
2023/10/21 06:54:43;;;;;;;7.35;3.95;;;;;;;12.11;100.00;98803.28;5025101;28;20117;-72
2023/10/21 06:57:09;;;;;;;5.63;4.13;;;;;;;12.16;100.00;98803.63;5033274;28;20580;-70
2023/10/21 06:59:34;;;;;;;7.95;3.90;;;;;;;12.21;100.00;98808.56;5040687;28;20080;-71
2023/10/21 07:02:00;;;;;;;13.38;4.38;;;;;;;12.25;100.00;98823.56;5038198;28;20037;-70
2023/10/21 07:04:26;;;;;;;6.95;3.45;;;;;;;12.27;100.00;98816.06;5028870;28;20048;-70
2023/10/21 07:06:51;;;;;;;6.80;3.00;;;;;;;12.31;100.00;98822.00;5028817;28;20496;-72
2023/10/21 07:09:16;;;;;;;9.35;4.05;;;;;;;12.34;100.00;98825.25;5027561;28;20476;-71
2023/10/21 07:11:42;;;;;;;7.68;3.42;;;;;;;12.36;100.00;98827.81;5033025;28;20120;-71
2023/10/21 07:14:08;;;;;;;8.10;3.35;;;;;;;12.38;100.00;98836.66;5027184;28;20021;-69
2023/10/21 07:16:33;;;;;;;8.07;3.47;;;;;;;12.40;100.00;98848.25;5028410;28;20041;-71
2023/10/21 07:18:58;;;;;;;8.25;3.40;;;;;;;12.40;100.00;98846.41;5028537;28;20477;-71
2023/10/21 07:21:25;;;;;;;6.10;3.25;;;;;;;12.39;100.00;98860.19;5028139;28;20088;-71
2023/10/21 07:23:51;;;;;;;5.70;2.65;;;;;;;12.42;100.00;98873.50;5027750;28;20393;-70
2023/10/21 07:26:16;;;;;;;9.93;3.25;;;;;;;12.41;100.00;98879.97;5028372;28;20038;-71
2023/10/21 07:28:41;;;;;;;6.93;3.15;;;;;;;12.42;100.00;98893.44;5028253;28;20037;-69
2023/10/21 07:31:07;;;;;;;5.13;1.92;;;;;;;12.36;100.00;98898.72;5028383;28;20050;-71
2023/10/21 07:33:32;;;;;;;2.33;1.60;;;;;;;12.32;100.00;98906.38;5034306;28;20037;-73
2023/10/21 07:35:57;;;;;;;2.30;1.30;;;;;;;12.29;100.00;98920.34;5041729;28;20029;-71
2023/10/21 07:38:23;;;;;;;1.88;1.30;;;;;;;12.25;100.00;98928.00;5027369;28;20047;-72
2023/10/21 07:40:48;;;;;;;1.38;1.00;;;;;;;12.22;100.00;98928.38;5028513;28;20461;-70
2023/10/21 07:43:16;;;;;;;2.72;0.82;;;;;;;12.22;100.00;98957.50;5027839;28;20511;-69
2023/10/21 07:45:42;;;;;;;1.48;0.93;;;;;;;12.20;100.00;98954.94;5036626;28;20370;-69
2023/10/21 07:48:07;;;;;;;3.00;0.90;;;;;;;12.22;100.00;98960.22;5046814;28;20040;-68
2023/10/21 07:50:33;;;;;;;2.17;1.00;;;;;;;12.22;100.00;98963.81;5028112;28;20029;-71
2023/10/21 07:52:59;;;;;;;5.18;1.02;;;;;;;12.28;100.00;98973.19;5039703;28;20495;-70
2023/10/21 07:55:24;;;;;;;4.05;0.88;;;;;;;12.37;100.00;98974.06;5046703;28;20052;-70
2023/10/21 07:57:50;;;;;;;3.42;1.10;;;;;;;12.45;100.00;98980.38;5028033;28;20557;-70
2023/10/21 08:00:15;;;;;;;1.40;0.90;;;;;;;12.49;100.00;98991.78;5027382;28;20021;-72
2023/10/21 08:02:41;;;;;;;3.20;0.90;;;;;;;12.44;100.00;98994.16;5027980;28;20041;-70
2023/10/21 08:05:07;;;;;;;2.83;1.08;;;;;;;12.39;100.00;98991.94;5043501;28;20037;-71
2023/10/21 08:07:34;;;;;;;1.60;0.98;;;;;;;12.40;100.00;99004.56;5036922;28;20100;-70
2023/10/21 08:10:00;;;;;;;1.83;1.10;;;;;;;12.43;100.00;98997.91;5032262;28;20466;-70
2023/10/21 08:12:25;;;;;;;2.25;0.90;;;;;;;12.47;100.00;99015.66;5038558;28;20041;-70
2023/10/21 08:14:50;;;;;;;1.15;0.80;;;;;;;12.48;100.00;99018.19;5032627;28;20041;-71
2023/10/21 08:17:17;;;;;;;3.33;0.70;;;;;;;12.49;100.00;99022.63;5031910;28;20114;-71
2023/10/21 08:19:43;;;;;;;2.03;1.10;;;;;;;12.54;100.00;99018.53;5032020;28;20029;-71
2023/10/21 08:22:09;;;;;;;2.65;0.90;;;;;;;12.59;100.00;99016.16;5051871;28;20048;-72
2023/10/21 08:24:34;;;;;;;1.60;1.00;;;;;;;12.66;100.00;99025.38;5051985;28;20037;-71
2023/10/21 08:27:00;;;;;;;1.90;0.73;;;;;;;12.76;100.00;99020.59;5040107;28;20025;-70
2023/10/21 08:29:25;;;;;;;2.60;1.00;;;;;;;12.94;100.00;99024.03;5031690;28;20041;-71
2023/10/21 08:31:50;;;;;;;1.30;1.00;;;;;;;13.08;100.00;99030.66;5031963;28;20045;-72
2023/10/21 08:34:16;;;;;;;1.83;0.90;;;;;;;13.23;100.00;99031.69;5013737;28;20503;-70
2023/10/21 08:36:42;;;;;;;0.95;0.80;;;;;;;13.36;100.00;99030.34;5030308;28;20321;-71
2023/10/21 08:39:08;;;;;;;2.03;0.70;;;;;;;13.46;100.00;99037.28;5041863;28;20121;-74
2023/10/21 08:41:38;;;;;;;1.73;0.65;;;;;;;13.50;100.00;99035.06;5042787;28;20104;-71
2023/10/21 08:44:05;;;;;;;1.27;0.70;;;;;;;13.49;100.00;99039.69;5043398;28;20041;-71
2023/10/21 08:46:35;;;;;;;1.17;0.85;;;;;;;13.51;100.00;99050.44;5032963;28;20040;-70
2023/10/21 08:49:03;;;;;;;2.40;1.00;;;;;;;13.61;100.00;99053.81;5030400;28;20037;-69
2023/10/21 08:51:30;;;;;;;1.38;0.70;;;;;;;13.66;100.00;99058.75;5047034;28;20523;-71
2023/10/21 08:54:00;;;;;;;1.75;0.70;;;;;;;13.66;100.00;99064.22;5030987;28;20032;-73
2023/10/21 08:56:29;;;;;;;2.80;0.60;;;;;;;13.60;100.00;99057.59;5034960;28;20041;-71
2023/10/21 08:58:55;;;;;;;1.52;1.00;;;;;;;13.62;100.00;99073.81;5045982;28;20068;-70
2023/10/21 09:01:22;;;;;;;1.02;0.68;;;;;;;13.62;100.00;99073.81;5034241;28;20485;-68
2023/10/21 09:03:49;;;;;;;1.02;0.75;;;;;;;13.65;100.00;99068.84;5035245;28;20069;-69
2023/10/21 09:06:17;;;;;;;2.03;0.50;;;;;;;13.71;100.00;99072.78;5041972;28;20030;-70
2023/10/21 09:08:44;;;;;;;3.08;0.63;;;;;;;13.72;100.00;99089.00;5030087;28;20064;-70
2023/10/21 09:11:11;;;;;;;2.53;0.80;;;;;;;13.67;100.00;99079.63;5031129;28;20041;-70
2023/10/21 09:13:38;;;;;;;8.85;1.40;;;;;;;13.68;100.00;99097.72;5031838;28;20106;-69
2023/10/21 09:16:19;;;;;;;1.65;0.90;;;;;;;13.72;100.00;99097.19;5036321;28;20033;-70
2023/10/21 09:18:59;;;;;;;4.28;0.75;;;;;;;13.74;100.00;99110.69;5049436;28;20068;-72
2023/10/21 09:21:32;;;;;;;3.20;0.70;;;;;;;13.71;100.00;99102.84;5029854;28;20040;-70
2023/10/21 09:24:04;;;;;;;3.35;0.85;;;;;;;13.68;100.00;99101.28;5031178;28;20538;-69
2023/10/21 09:26:42;;;;;;;2.15;0.80;;;;;;;13.71;100.00;99105.59;5029911;28;20037;-69
2023/10/21 09:29:12;;;;;;;4.75;0.88;;;;;;;13.71;100.00;99113.78;5051296;28;20037;-70
2023/10/21 09:31:54;;;;;;;3.50;1.00;;;;;;;13.72;100.00;99112.75;5041529;28;20076;-70
2023/10/21 09:34:31;;;;;;;4.32;1.35;;;;;;;13.68;100.00;99112.22;5030919;28;20493;-70
2023/10/21 09:36:59;;;;;;;4.38;0.95;;;;;;;13.63;99.09;99098.25;5034081;28;20075;-70
2023/10/21 09:39:26;;;;;;;2.20;0.90;;;;;;;13.54;97.83;99110.19;5031219;28;20117;-71
2023/10/21 09:41:52;;;;;;;3.00;0.82;;;;;;;13.55;100.00;99122.84;5035593;28;20952;-71
2023/10/21 09:44:19;;;;;;;3.70;1.23;;;;;;;13.56;100.00;99116.34;5030576;28;20042;-70
2023/10/21 09:46:46;;;;;;;6.63;0.95;;;;;;;13.63;100.00;99122.84;5030142;28;20042;-70
2023/10/21 09:49:13;;;;;;;3.80;0.80;;;;;;;13.69;100.00;99127.59;5030744;28;20132;-73
2023/10/21 09:51:56;;;;;;;4.18;1.00;;;;;;;13.71;99.91;99132.91;5030845;28;20604;-70
2023/10/21 09:54:32;;;;;;;3.05;0.70;;;;;;;13.74;100.00;99129.81;5045458;28;20043;-72
2023/10/21 09:56:59;;;;;;;5.07;1.02;;;;;;;13.76;99.38;99133.25;5029051;28;20392;-71
2023/10/21 09:59:26;;;;;;;5.15;1.05;;;;;;;13.84;97.41;99151.47;5030047;28;20390;-70
2023/10/21 10:01:53;;;;;;;4.28;0.90;;;;;;;13.94;99.12;99143.94;5029602;28;20095;-71
2023/10/21 10:04:21;;;;;;;2.10;0.80;;;;;;;14.08;97.84;99156.03;5038531;28;20155;-70
2023/10/21 10:06:57;;;;;;;2.80;0.70;;;;;;;14.13;96.97;99159.09;5030433;28;20481;-70
2023/10/21 10:09:23;;;;;;;3.13;0.90;;;;;;;14.20;98.85;99166.44;5030101;28;20073;-70
2023/10/21 10:11:50;;;;;;;2.95;0.88;;;;;;;14.24;94.96;99162.31;5030425;28;20083;-71
2023/10/21 10:14:16;;;;;;;7.07;0.80;;;;;;;14.26;93.57;99162.13;5029035;28;20575;-71
2023/10/21 10:16:44;;;;;;;5.20;0.80;;;;;;;14.30;94.03;99158.88;5042979;28;20504;-70
2023/10/21 10:19:12;;;;;;;4.22;0.98;;;;;;;14.40;93.32;99160.53;5030150;28;20423;-71
2023/10/21 10:21:41;;;;;;;5.05;1.13;;;;;;;14.39;92.44;99169.78;5033354;28;20103;-72
2023/10/21 10:24:07;;;;;;;6.68;0.88;;;;;;;14.41;93.27;99171.34;5049694;28;20040;-70
2023/10/21 10:26:37;;;;;;;3.25;0.95;;;;;;;14.50;91.82;99175.78;5048732;28;20033;-71
2023/10/21 10:29:25;;;;;;;4.40;1.20;;;;;;;14.52;91.37;99167.38;5048986;28;20040;-70
2023/10/21 10:32:11;;;;;;;4.47;1.10;;;;;;;14.54;93.24;99174.38;5030743;28;20053;-70
2023/10/21 10:34:57;;;;;;;4.03;0.90;;;;;;;14.60;92.61;99174.72;5042281;28;20039;-70
2023/10/21 10:37:37;;;;;;;4.00;1.00;;;;;;;14.74;92.27;99185.75;5042532;28;20481;-73
2023/10/21 10:40:18;;;;;;;5.82;1.20;;;;;;;14.79;89.21;99175.13;5030167;28;20393;-71
2023/10/21 10:42:44;;;;;;;5.85;0.80;;;;;;;14.92;87.45;99182.75;5041890;28;20137;-70
2023/10/21 10:45:09;;;;;;;4.43;0.85;;;;;;;15.08;86.97;99170.00;5030052;28;20129;-71
2023/10/21 10:47:37;;;;;;;3.95;1.10;;;;;;;15.19;85.54;99196.94;5030169;28;20048;-70
2023/10/21 10:50:11;;;;;;;7.22;0.93;;;;;;;15.34;85.67;99180.56;5029686;28;20025;-70
2023/10/21 10:52:36;;;;;;;3.75;1.17;;;;;;;15.55;80.28;99194.47;5028526;28;20043;-71
2023/10/21 10:55:03;;;;;;;4.72;1.00;;;;;;;15.69;82.79;99198.31;5011835;28;20037;-69
2023/10/21 10:57:29;;;;;;;4.88;1.70;;;;;;;15.72;81.85;99192.47;5029600;28;20068;-71
2023/10/21 10:59:55;;;;;;;5.80;1.00;;;;;;;15.81;84.81;99194.13;5045607;28;20099;-72
2023/10/21 11:02:20;;;;;;;5.47;1.38;;;;;;;15.83;82.37;99194.75;5049808;28;20132;-71
2023/10/21 11:04:49;;;;;;;5.88;1.23;;;;;;;15.76;81.89;99191.03;5038284;28;20022;-71
2023/10/21 11:07:18;;;;;;;6.07;1.27;;;;;;;15.67;81.70;99190.28;5028279;28;20403;-72
2023/10/21 11:09:45;;;;;;;3.42;1.00;;;;;;;15.61;81.09;99192.88;5029572;28;20045;-71
2023/10/21 11:12:10;;;;;;;4.57;1.17;;;;;;;15.73;83.62;99202.41;5033324;28;20472;-73
2023/10/21 11:14:36;;;;;;;3.83;1.42;;;;;;;15.86;83.13;99207.28;5049454;28;20461;-70
2023/10/21 11:17:04;;;;;;;5.57;1.65;;;;;;;16.04;83.42;99210.50;5049360;28;20031;-71
2023/10/21 11:19:30;;;;;;;2.13;0.93;;;;;;;16.04;76.93;99210.50;5035398;28;20072;-71
2023/10/21 11:21:55;;;;;;;5.68;1.40;;;;;;;15.89;78.77;99212.38;5029316;28;20037;-70